sensor_id;sensor_type;location;lat;lon;timestamp;P1;durP1;ratioP1;P2;durP2;ratioP2
70049;SDS011;57391;51.306;22.680;2022-09-03T00:00:35;9.20;;;4.10;;
70049;SDS011;57391;51.306;22.680;2022-09-03T00:03:39;9.30;;;4.70;;
70049;SDS011;57391;51.306;22.680;2022-09-03T00:06:17;9.20;;;4.30;;
70049;SDS011;57391;51.306;22.680;2022-09-03T00:12:07;7.10;;;3.40;;
70049;SDS011;57391;51.306;22.680;2022-09-03T00:14:46;7.80;;;4.20;;
70049;SDS011;57391;51.306;22.680;2022-09-03T00:17:23;11.00;;;3.90;;
70049;SDS011;57391;51.306;22.680;2022-09-03T00:23:05;8.20;;;3.90;;
70049;SDS011;57391;51.306;22.680;2022-09-03T00:25:48;9.50;;;4.00;;
70049;SDS011;57391;51.306;22.680;2022-09-03T00:28:24;8.20;;;4.00;;
70049;SDS011;57391;51.306;22.680;2022-09-03T00:31:07;8.00;;;4.00;;
70049;SDS011;57391;51.306;22.680;2022-09-03T00:34:03;9.00;;;4.00;;
70049;SDS011;57391;51.306;22.680;2022-09-03T00:36:44;8.60;;;4.10;;
70049;SDS011;57391;51.306;22.680;2022-09-03T00:39:15;7.70;;;3.50;;
70049;SDS011;57391;51.306;22.680;2022-09-03T00:42:00;7.30;;;3.30;;
70049;SDS011;57391;51.306;22.680;2022-09-03T00:53:41;7.60;;;3.70;;
70049;SDS011;57391;51.306;22.680;2022-09-03T01:02:39;7.20;;;3.10;;
70049;SDS011;57391;51.306;22.680;2022-09-03T01:05:32;7.80;;;3.40;;
70049;SDS011;57391;51.306;22.680;2022-09-03T01:08:32;6.20;;;3.00;;
70049;SDS011;57391;51.306;22.680;2022-09-03T01:11:36;8.00;;;3.00;;
70049;SDS011;57391;51.306;22.680;2022-09-03T01:26:46;6.80;;;3.00;;
70049;SDS011;57391;51.306;22.680;2022-09-03T01:29:46;6.90;;;3.20;;
70049;SDS011;57391;51.306;22.680;2022-09-03T01:44:02;6.90;;;2.50;;
70049;SDS011;57391;51.306;22.680;2022-09-03T01:46:38;5.70;;;2.60;;
70049;SDS011;57391;51.306;22.680;2022-09-03T01:49:23;4.70;;;2.60;;
70049;SDS011;57391;51.306;22.680;2022-09-03T01:52:08;5.80;;;2.30;;
70049;SDS011;57391;51.306;22.680;2022-09-03T01:57:48;5.40;;;2.40;;
70049;SDS011;57391;51.306;22.680;2022-09-03T02:00:25;6.40;;;2.40;;
70049;SDS011;57391;51.306;22.680;2022-09-03T02:02:54;5.70;;;2.40;;
70049;SDS011;57391;51.306;22.680;2022-09-03T02:05:26;5.60;;;2.30;;
70049;SDS011;57391;51.306;22.680;2022-09-03T02:13:38;5.00;;;2.50;;
70049;SDS011;57391;51.306;22.680;2022-09-03T02:16:14;7.10;;;2.90;;
70049;SDS011;57391;51.306;22.680;2022-09-03T02:18:49;6.80;;;2.60;;
70049;SDS011;57391;51.306;22.680;2022-09-03T02:21:23;6.80;;;2.40;;
70049;SDS011;57391;51.306;22.680;2022-09-03T02:23:51;5.90;;;2.60;;
70049;SDS011;57391;51.306;22.680;2022-09-03T02:26:23;5.30;;;2.60;;
70049;SDS011;57391;51.306;22.680;2022-09-03T02:28:51;6.50;;;2.70;;
70049;SDS011;57391;51.306;22.680;2022-09-03T02:31:20;5.80;;;2.40;;
70049;SDS011;57391;51.306;22.680;2022-09-03T02:33:48;7.20;;;2.60;;
70049;SDS011;57391;51.306;22.680;2022-09-03T02:36:19;6.70;;;2.40;;
70049;SDS011;57391;51.306;22.680;2022-09-03T02:38:52;5.20;;;2.40;;
70049;SDS011;57391;51.306;22.680;2022-09-03T02:41:19;4.90;;;2.40;;
70049;SDS011;57391;51.306;22.680;2022-09-03T02:43:52;6.20;;;2.50;;
70049;SDS011;57391;51.306;22.680;2022-09-03T02:46:36;5.80;;;2.50;;
70049;SDS011;57391;51.306;22.680;2022-09-03T02:49:07;6.30;;;2.50;;
70049;SDS011;57391;51.306;22.680;2022-09-03T02:51:38;7.90;;;2.70;;
70049;SDS011;57391;51.306;22.680;2022-09-03T02:54:09;6.40;;;2.60;;
70049;SDS011;57391;51.306;22.680;2022-09-03T02:56:37;5.70;;;2.40;;
70049;SDS011;57391;51.306;22.680;2022-09-03T02:59:06;7.10;;;2.60;;
70049;SDS011;57391;51.306;22.680;2022-09-03T03:01:34;5.40;;;2.40;;
70049;SDS011;57391;51.306;22.680;2022-09-03T03:04:03;5.40;;;2.70;;
70049;SDS011;57391;51.306;22.680;2022-09-03T03:06:30;6.20;;;2.50;;
70049;SDS011;57391;51.306;22.680;2022-09-03T03:08:58;6.70;;;2.50;;
70049;SDS011;57391;51.306;22.680;2022-09-03T03:11:27;5.20;;;2.50;;
70049;SDS011;57391;51.306;22.680;2022-09-03T03:13:57;5.20;;;2.20;;
70049;SDS011;57391;51.306;22.680;2022-09-03T03:16:34;5.70;;;2.60;;
70049;SDS011;57391;51.306;22.680;2022-09-03T03:19:01;5.20;;;2.30;;
70049;SDS011;57391;51.306;22.680;2022-09-03T03:21:28;5.40;;;2.40;;
70049;SDS011;57391;51.306;22.680;2022-09-03T03:23:56;5.70;;;2.30;;
70049;SDS011;57391;51.306;22.680;2022-09-03T03:26:23;5.90;;;2.50;;
70049;SDS011;57391;51.306;22.680;2022-09-03T03:28:57;6.70;;;3.00;;
70049;SDS011;57391;51.306;22.680;2022-09-03T03:31:26;6.00;;;2.60;;
70049;SDS011;57391;51.306;22.680;2022-09-03T03:33:55;5.90;;;2.70;;
70049;SDS011;57391;51.306;22.680;2022-09-03T03:36:30;8.10;;;2.50;;
70049;SDS011;57391;51.306;22.680;2022-09-03T03:39:00;5.80;;;2.40;;
70049;SDS011;57391;51.306;22.680;2022-09-03T03:41:32;5.30;;;2.30;;
70049;SDS011;57391;51.306;22.680;2022-09-03T03:44:03;5.30;;;2.40;;
70049;SDS011;57391;51.306;22.680;2022-09-03T03:46:37;5.10;;;2.30;;
70049;SDS011;57391;51.306;22.680;2022-09-03T03:49:07;10.10;;;2.50;;
70049;SDS011;57391;51.306;22.680;2022-09-03T03:51:35;5.40;;;2.40;;
70049;SDS011;57391;51.306;22.680;2022-09-03T03:54:04;6.90;;;2.60;;
70049;SDS011;57391;51.306;22.680;2022-09-03T03:56:32;5.70;;;2.40;;
70049;SDS011;57391;51.306;22.680;2022-09-03T03:59:00;5.70;;;2.40;;
70049;SDS011;57391;51.306;22.680;2022-09-03T04:01:28;7.20;;;2.70;;
70049;SDS011;57391;51.306;22.680;2022-09-03T04:03:56;6.20;;;2.20;;
70049;SDS011;57391;51.306;22.680;2022-09-03T04:06:25;6.00;;;2.30;;
70049;SDS011;57391;51.306;22.680;2022-09-03T04:08:53;7.30;;;2.70;;
70049;SDS011;57391;51.306;22.680;2022-09-03T04:11:21;6.20;;;2.60;;
70049;SDS011;57391;51.306;22.680;2022-09-03T04:13:50;6.00;;;2.40;;
70049;SDS011;57391;51.306;22.680;2022-09-03T04:16:20;7.20;;;2.30;;
70049;SDS011;57391;51.306;22.680;2022-09-03T04:19:07;5.70;;;2.30;;
70049;SDS011;57391;51.306;22.680;2022-09-03T04:21:34;5.60;;;2.40;;
70049;SDS011;57391;51.306;22.680;2022-09-03T04:24:03;7.20;;;2.60;;
70049;SDS011;57391;51.306;22.680;2022-09-03T04:26:32;5.90;;;2.60;;
70049;SDS011;57391;51.306;22.680;2022-09-03T04:29:08;5.60;;;2.60;;
70049;SDS011;57391;51.306;22.680;2022-09-03T04:31:37;6.60;;;2.50;;
70049;SDS011;57391;51.306;22.680;2022-09-03T04:34:04;6.60;;;2.50;;
70049;SDS011;57391;51.306;22.680;2022-09-03T04:36:32;6.70;;;2.60;;
70049;SDS011;57391;51.306;22.680;2022-09-03T04:39:00;5.90;;;2.70;;
70049;SDS011;57391;51.306;22.680;2022-09-03T04:41:29;5.70;;;2.60;;
70049;SDS011;57391;51.306;22.680;2022-09-03T04:43:57;6.30;;;2.60;;
70049;SDS011;57391;51.306;22.680;2022-09-03T04:46:26;10.90;;;3.20;;
70049;SDS011;57391;51.306;22.680;2022-09-03T04:48:58;6.00;;;2.70;;
70049;SDS011;57391;51.306;22.680;2022-09-03T04:51:27;6.60;;;2.70;;
70049;SDS011;57391;51.306;22.680;2022-09-03T04:53:57;5.50;;;2.90;;
70049;SDS011;57391;51.306;22.680;2022-09-03T04:56:28;7.80;;;2.80;;
70049;SDS011;57391;51.306;22.680;2022-09-03T04:59:01;6.00;;;2.90;;
70049;SDS011;57391;51.306;22.680;2022-09-03T05:01:31;5.50;;;2.70;;
70049;SDS011;57391;51.306;22.680;2022-09-03T05:04:00;5.70;;;2.80;;
70049;SDS011;57391;51.306;22.680;2022-09-03T05:06:29;6.50;;;3.20;;
70049;SDS011;57391;51.306;22.680;2022-09-03T05:08:57;7.50;;;3.20;;
70049;SDS011;57391;51.306;22.680;2022-09-03T05:11:25;6.40;;;2.90;;
70049;SDS011;57391;51.306;22.680;2022-09-03T05:13:55;5.80;;;2.80;;
70049;SDS011;57391;51.306;22.680;2022-09-03T05:16:24;6.00;;;2.90;;
70049;SDS011;57391;51.306;22.680;2022-09-03T05:18:55;7.40;;;3.10;;
70049;SDS011;57391;51.306;22.680;2022-09-03T05:21:26;8.00;;;3.10;;
70049;SDS011;57391;51.306;22.680;2022-09-03T05:23:54;7.50;;;3.50;;
70049;SDS011;57391;51.306;22.680;2022-09-03T05:26:27;7.60;;;3.80;;
70049;SDS011;57391;51.306;22.680;2022-09-03T05:28:58;7.60;;;3.30;;
70049;SDS011;57391;51.306;22.680;2022-09-03T05:31:29;7.00;;;3.20;;
70049;SDS011;57391;51.306;22.680;2022-09-03T05:33:58;8.30;;;4.00;;
70049;SDS011;57391;51.306;22.680;2022-09-03T05:36:30;7.60;;;3.70;;
70049;SDS011;57391;51.306;22.680;2022-09-03T05:38:59;7.30;;;3.70;;
70049;SDS011;57391;51.306;22.680;2022-09-03T05:44:09;7.60;;;4.00;;
70049;SDS011;57391;51.306;22.680;2022-09-03T05:46:36;8.40;;;4.40;;
70049;SDS011;57391;51.306;22.680;2022-09-03T05:49:05;7.80;;;4.00;;
70049;SDS011;57391;51.306;22.680;2022-09-03T05:51:35;8.40;;;4.00;;
70049;SDS011;57391;51.306;22.680;2022-09-03T05:54:03;12.30;;;4.40;;
70049;SDS011;57391;51.306;22.680;2022-09-03T05:56:31;8.80;;;4.20;;
70049;SDS011;57391;51.306;22.680;2022-09-03T05:59:01;9.30;;;4.10;;
70049;SDS011;57391;51.306;22.680;2022-09-03T06:01:43;8.20;;;4.10;;
70049;SDS011;57391;51.306;22.680;2022-09-03T06:04:13;9.70;;;5.10;;
70049;SDS011;57391;51.306;22.680;2022-09-03T06:11:50;8.50;;;4.20;;
70049;SDS011;57391;51.306;22.680;2022-09-03T06:14:19;10.80;;;4.80;;
70049;SDS011;57391;51.306;22.680;2022-09-03T06:16:48;8.30;;;4.10;;
70049;SDS011;57391;51.306;22.680;2022-09-03T06:19:18;9.10;;;4.30;;
70049;SDS011;57391;51.306;22.680;2022-09-03T06:21:46;10.00;;;4.00;;
70049;SDS011;57391;51.306;22.680;2022-09-03T06:24:16;9.50;;;4.20;;
70049;SDS011;57391;51.306;22.680;2022-09-03T06:26:45;7.80;;;3.70;;
70049;SDS011;57391;51.306;22.680;2022-09-03T06:29:13;8.00;;;4.10;;
70049;SDS011;57391;51.306;22.680;2022-09-03T06:31:41;7.50;;;3.60;;
70049;SDS011;57391;51.306;22.680;2022-09-03T06:34:09;8.80;;;4.10;;
70049;SDS011;57391;51.306;22.680;2022-09-03T06:36:36;9.10;;;4.00;;
70049;SDS011;57391;51.306;22.680;2022-09-03T06:39:03;10.50;;;4.10;;
70049;SDS011;57391;51.306;22.680;2022-09-03T06:41:31;8.80;;;3.90;;
70049;SDS011;57391;51.306;22.680;2022-09-03T06:44:03;7.70;;;4.10;;
70049;SDS011;57391;51.306;22.680;2022-09-03T06:46:35;8.90;;;3.60;;
70049;SDS011;57391;51.306;22.680;2022-09-03T06:49:10;8.90;;;3.70;;
70049;SDS011;57391;51.306;22.680;2022-09-03T06:51:39;8.70;;;3.90;;
70049;SDS011;57391;51.306;22.680;2022-09-03T06:54:08;9.40;;;3.80;;
70049;SDS011;57391;51.306;22.680;2022-09-03T06:56:38;8.10;;;4.10;;
70049;SDS011;57391;51.306;22.680;2022-09-03T06:59:11;7.80;;;3.80;;
70049;SDS011;57391;51.306;22.680;2022-09-03T07:01:41;7.90;;;3.90;;
70049;SDS011;57391;51.306;22.680;2022-09-03T07:04:10;8.80;;;4.00;;
70049;SDS011;57391;51.306;22.680;2022-09-03T07:06:40;7.40;;;3.50;;
70049;SDS011;57391;51.306;22.680;2022-09-03T07:09:09;7.40;;;3.80;;
70049;SDS011;57391;51.306;22.680;2022-09-03T07:11:38;8.20;;;3.50;;
70049;SDS011;57391;51.306;22.680;2022-09-03T07:14:13;7.00;;;2.60;;
70049;SDS011;57391;51.306;22.680;2022-09-03T07:16:41;7.80;;;3.40;;
70049;SDS011;57391;51.306;22.680;2022-09-03T07:19:09;8.60;;;3.40;;
70049;SDS011;57391;51.306;22.680;2022-09-03T07:21:39;9.10;;;3.40;;
70049;SDS011;57391;51.306;22.680;2022-09-03T07:24:08;6.80;;;3.40;;
70049;SDS011;57391;51.306;22.680;2022-09-03T07:26:38;6.30;;;3.40;;
70049;SDS011;57391;51.306;22.680;2022-09-03T07:29:10;7.20;;;3.70;;
70049;SDS011;57391;51.306;22.680;2022-09-03T07:31:40;7.60;;;3.00;;
70049;SDS011;57391;51.306;22.680;2022-09-03T07:34:09;6.50;;;3.30;;
70049;SDS011;57391;51.306;22.680;2022-09-03T07:36:40;7.70;;;2.90;;
70049;SDS011;57391;51.306;22.680;2022-09-03T07:39:10;6.20;;;3.10;;
70049;SDS011;57391;51.306;22.680;2022-09-03T07:41:39;6.60;;;3.50;;
70049;SDS011;57391;51.306;22.680;2022-09-03T07:44:12;8.40;;;3.10;;
70049;SDS011;57391;51.306;22.680;2022-09-03T07:46:42;6.70;;;2.60;;
70049;SDS011;57391;51.306;22.680;2022-09-03T07:49:11;6.30;;;2.60;;
70049;SDS011;57391;51.306;22.680;2022-09-03T07:51:39;5.10;;;2.60;;
70049;SDS011;57391;51.306;22.680;2022-09-03T07:54:08;6.70;;;2.80;;
70049;SDS011;57391;51.306;22.680;2022-09-03T07:56:38;6.20;;;2.70;;
70049;SDS011;57391;51.306;22.680;2022-09-03T07:59:38;4.40;;;2.30;;
70049;SDS011;57391;51.306;22.680;2022-09-03T08:02:06;5.30;;;2.40;;
70049;SDS011;57391;51.306;22.680;2022-09-03T08:04:33;6.60;;;2.40;;
70049;SDS011;57391;51.306;22.680;2022-09-03T08:07:01;6.20;;;2.40;;
70049;SDS011;57391;51.306;22.680;2022-09-03T08:09:29;7.30;;;2.80;;
70049;SDS011;57391;51.306;22.680;2022-09-03T08:11:58;5.40;;;2.50;;
70049;SDS011;57391;51.306;22.680;2022-09-03T08:14:25;7.60;;;3.00;;
70049;SDS011;57391;51.306;22.680;2022-09-03T08:16:53;6.10;;;2.60;;
70049;SDS011;57391;51.306;22.680;2022-09-03T08:19:20;6.30;;;2.70;;
70049;SDS011;57391;51.306;22.680;2022-09-03T08:21:48;6.80;;;2.90;;
70049;SDS011;57391;51.306;22.680;2022-09-03T08:24:17;7.60;;;3.40;;
70049;SDS011;57391;51.306;22.680;2022-09-03T08:26:47;7.20;;;3.10;;
70049;SDS011;57391;51.306;22.680;2022-09-03T08:29:14;8.20;;;3.40;;
70049;SDS011;57391;51.306;22.680;2022-09-03T08:31:41;7.80;;;4.30;;
70049;SDS011;57391;51.306;22.680;2022-09-03T08:34:10;9.00;;;4.70;;
70049;SDS011;57391;51.306;22.680;2022-09-03T08:36:39;10.20;;;5.30;;
70049;SDS011;57391;51.306;22.680;2022-09-03T08:39:09;10.10;;;5.50;;
70049;SDS011;57391;51.306;22.680;2022-09-03T08:55:52;11.30;;;7.00;;
70049;SDS011;57391;51.306;22.680;2022-09-03T08:58:25;11.80;;;6.80;;
70049;SDS011;57391;51.306;22.680;2022-09-03T09:07:16;13.90;;;7.60;;
70049;SDS011;57391;51.306;22.680;2022-09-03T09:16:22;10.50;;;6.60;;
70049;SDS011;57391;51.306;22.680;2022-09-03T09:22:46;14.40;;;8.70;;
70049;SDS011;57391;51.306;22.680;2022-09-03T09:25:24;11.80;;;6.40;;
70049;SDS011;57391;51.306;22.680;2022-09-03T09:31:03;12.10;;;7.10;;
70049;SDS011;57391;51.306;22.680;2022-09-03T09:33:38;12.40;;;7.50;;
70049;SDS011;57391;51.306;22.680;2022-09-03T09:36:08;12.40;;;7.50;;
70049;SDS011;57391;51.306;22.680;2022-09-03T09:38:46;15.00;;;7.70;;
70049;SDS011;57391;51.306;22.680;2022-09-03T09:41:16;10.90;;;6.40;;
70049;SDS011;57391;51.306;22.680;2022-09-03T09:43:46;12.90;;;8.10;;
70049;SDS011;57391;51.306;22.680;2022-09-03T09:46:19;13.80;;;7.60;;
70049;SDS011;57391;51.306;22.680;2022-09-03T09:48:56;11.90;;;6.60;;
70049;SDS011;57391;51.306;22.680;2022-09-03T09:51:26;10.30;;;6.70;;
70049;SDS011;57391;51.306;22.680;2022-09-03T09:56:58;11.10;;;4.80;;
70049;SDS011;57391;51.306;22.680;2022-09-03T09:59:28;9.80;;;4.20;;
70049;SDS011;57391;51.306;22.680;2022-09-03T10:02:27;8.90;;;4.30;;
70049;SDS011;57391;51.306;22.680;2022-09-03T10:05:00;8.60;;;4.30;;
70049;SDS011;57391;51.306;22.680;2022-09-03T10:07:38;6.50;;;3.40;;
70049;SDS011;57391;51.306;22.680;2022-09-03T10:10:15;5.60;;;3.40;;
70049;SDS011;57391;51.306;22.680;2022-09-03T10:12:59;5.00;;;2.30;;
70049;SDS011;57391;51.306;22.680;2022-09-03T10:15:46;5.60;;;2.80;;
70049;SDS011;57391;51.306;22.680;2022-09-03T10:18:34;7.40;;;3.40;;
70049;SDS011;57391;51.306;22.680;2022-09-03T10:21:19;9.80;;;4.20;;
70049;SDS011;57391;51.306;22.680;2022-09-03T10:24:14;9.20;;;4.10;;
70049;SDS011;57391;51.306;22.680;2022-09-03T10:26:53;11.10;;;6.10;;
70049;SDS011;57391;51.306;22.680;2022-09-03T10:29:22;9.40;;;4.40;;
70049;SDS011;57391;51.306;22.680;2022-09-03T10:35:21;13.30;;;6.50;;
70049;SDS011;57391;51.306;22.680;2022-09-03T10:46:28;9.50;;;5.30;;
70049;SDS011;57391;51.306;22.680;2022-09-03T10:55:47;8.10;;;4.20;;
70049;SDS011;57391;51.306;22.680;2022-09-03T11:04:41;10.20;;;5.30;;
70049;SDS011;57391;51.306;22.680;2022-09-03T11:07:18;10.40;;;5.00;;
70049;SDS011;57391;51.306;22.680;2022-09-03T11:10:10;9.40;;;5.00;;
70049;SDS011;57391;51.306;22.680;2022-09-03T11:12:56;8.10;;;4.30;;
70049;SDS011;57391;51.306;22.680;2022-09-03T11:15:31;7.80;;;4.10;;
70049;SDS011;57391;51.306;22.680;2022-09-03T11:18:02;9.60;;;4.80;;
70049;SDS011;57391;51.306;22.680;2022-09-03T11:20:39;9.60;;;5.30;;
70049;SDS011;57391;51.306;22.680;2022-09-03T11:23:10;11.40;;;6.00;;
70049;SDS011;57391;51.306;22.680;2022-09-03T11:25:46;11.20;;;5.90;;
70049;SDS011;57391;51.306;22.680;2022-09-03T11:36:52;12.00;;;6.90;;
70049;SDS011;57391;51.306;22.680;2022-09-03T11:42:41;12.20;;;6.80;;
70049;SDS011;57391;51.306;22.680;2022-09-03T11:47:45;12.00;;;6.70;;
70049;SDS011;57391;51.306;22.680;2022-09-03T11:52:52;11.10;;;6.80;;
70049;SDS011;57391;51.306;22.680;2022-09-03T11:55:58;11.60;;;6.50;;
70049;SDS011;57391;51.306;22.680;2022-09-03T11:58:37;11.70;;;5.80;;
70049;SDS011;57391;51.306;22.680;2022-09-03T12:01:16;13.80;;;6.30;;
70049;SDS011;57391;51.306;22.680;2022-09-03T12:03:58;11.30;;;6.20;;
70049;SDS011;57391;51.306;22.680;2022-09-03T12:13:20;13.10;;;6.50;;
70049;SDS011;57391;51.306;22.680;2022-09-03T12:16:19;9.50;;;5.50;;
70049;SDS011;57391;51.306;22.680;2022-09-03T12:19:12;8.90;;;5.50;;
70049;SDS011;57391;51.306;22.680;2022-09-03T12:21:48;9.40;;;5.10;;
70049;SDS011;57391;51.306;22.680;2022-09-03T12:24:17;8.10;;;4.30;;
70049;SDS011;57391;51.306;22.680;2022-09-03T12:26:45;8.40;;;5.10;;
70049;SDS011;57391;51.306;22.680;2022-09-03T12:29:22;10.40;;;5.10;;
70049;SDS011;57391;51.306;22.680;2022-09-03T12:31:54;8.70;;;5.20;;
70049;SDS011;57391;51.306;22.680;2022-09-03T12:34:23;9.80;;;5.50;;
70049;SDS011;57391;51.306;22.680;2022-09-03T12:36:53;8.70;;;4.80;;
70049;SDS011;57391;51.306;22.680;2022-09-03T12:39:26;9.10;;;4.60;;
70049;SDS011;57391;51.306;22.680;2022-09-03T12:41:59;9.40;;;5.00;;
70049;SDS011;57391;51.306;22.680;2022-09-03T12:44:32;8.90;;;4.30;;
70049;SDS011;57391;51.306;22.680;2022-09-03T12:47:14;7.90;;;4.70;;
70049;SDS011;57391;51.306;22.680;2022-09-03T12:49:46;7.90;;;3.90;;
70049;SDS011;57391;51.306;22.680;2022-09-03T12:58:35;5.50;;;2.80;;
70049;SDS011;57391;51.306;22.680;2022-09-03T13:01:07;5.50;;;3.20;;
70049;SDS011;57391;51.306;22.680;2022-09-03T13:04:05;6.30;;;3.30;;
70049;SDS011;57391;51.306;22.680;2022-09-03T13:09:32;6.50;;;3.80;;
70049;SDS011;57391;51.306;22.680;2022-09-03T13:12:02;6.50;;;3.50;;
70049;SDS011;57391;51.306;22.680;2022-09-03T13:14:43;6.70;;;3.10;;
70049;SDS011;57391;51.306;22.680;2022-09-03T13:17:54;7.00;;;3.40;;
70049;SDS011;57391;51.306;22.680;2022-09-03T13:20:39;5.90;;;2.80;;
70049;SDS011;57391;51.306;22.680;2022-09-03T13:29:36;6.40;;;2.90;;
70049;SDS011;57391;51.306;22.680;2022-09-03T13:34:49;7.30;;;3.10;;
70049;SDS011;57391;51.306;22.680;2022-09-03T13:39:58;7.30;;;3.00;;
70049;SDS011;57391;51.306;22.680;2022-09-03T13:42:39;6.90;;;3.10;;
70049;SDS011;57391;51.306;22.680;2022-09-03T13:45:28;5.10;;;2.70;;
70049;SDS011;57391;51.306;22.680;2022-09-03T13:48:27;5.70;;;2.60;;
70049;SDS011;57391;51.306;22.680;2022-09-03T13:51:28;7.30;;;2.80;;
70049;SDS011;57391;51.306;22.680;2022-09-03T13:54:18;6.60;;;2.40;;
70049;SDS011;57391;51.306;22.680;2022-09-03T14:00:09;5.30;;;2.20;;
70049;SDS011;57391;51.306;22.680;2022-09-03T14:02:54;5.50;;;2.40;;
70049;SDS011;57391;51.306;22.680;2022-09-03T14:05:49;6.90;;;2.50;;
70049;SDS011;57391;51.306;22.680;2022-09-03T14:08:33;8.10;;;2.60;;
70049;SDS011;57391;51.306;22.680;2022-09-03T14:14:56;6.40;;;2.40;;
70049;SDS011;57391;51.306;22.680;2022-09-03T14:20:45;5.40;;;2.70;;
70049;SDS011;57391;51.306;22.680;2022-09-03T14:25:54;5.30;;;2.90;;
70049;SDS011;57391;51.306;22.680;2022-09-03T14:49:19;7.50;;;2.90;;
70049;SDS011;57391;51.306;22.680;2022-09-03T15:01:34;6.30;;;3.30;;
70049;SDS011;57391;51.306;22.680;2022-09-03T15:04:12;6.30;;;2.80;;
70049;SDS011;57391;51.306;22.680;2022-09-03T15:10:15;5.30;;;2.40;;
70049;SDS011;57391;51.306;22.680;2022-09-03T15:13:08;7.50;;;2.90;;
70049;SDS011;57391;51.306;22.680;2022-09-03T15:29:26;7.90;;;3.40;;
70049;SDS011;57391;51.306;22.680;2022-09-03T15:32:17;7.40;;;3.10;;
70049;SDS011;57391;51.306;22.680;2022-09-03T15:35:29;7.90;;;3.60;;
70049;SDS011;57391;51.306;22.680;2022-09-03T15:38:11;7.30;;;3.40;;
70049;SDS011;57391;51.306;22.680;2022-09-03T15:41:03;9.10;;;3.60;;
70049;SDS011;57391;51.306;22.680;2022-09-03T15:43:36;7.10;;;3.30;;
70049;SDS011;57391;51.306;22.680;2022-09-03T15:48:56;6.50;;;3.40;;
70049;SDS011;57391;51.306;22.680;2022-09-03T15:51:32;7.10;;;3.50;;
70049;SDS011;57391;51.306;22.680;2022-09-03T15:57:06;6.60;;;3.20;;
70049;SDS011;57391;51.306;22.680;2022-09-03T16:02:22;8.00;;;3.80;;
70049;SDS011;57391;51.306;22.680;2022-09-03T16:05:19;7.90;;;3.80;;
70049;SDS011;57391;51.306;22.680;2022-09-03T16:10:43;11.50;;;5.40;;
70049;SDS011;57391;51.306;22.680;2022-09-03T16:16:01;9.40;;;4.80;;
70049;SDS011;57391;51.306;22.680;2022-09-03T16:18:45;6.20;;;4.10;;
70049;SDS011;57391;51.306;22.680;2022-09-03T16:21:36;8.50;;;4.30;;
70049;SDS011;57391;51.306;22.680;2022-09-03T16:24:31;8.80;;;4.30;;
70049;SDS011;57391;51.306;22.680;2022-09-03T16:38:58;12.60;;;5.90;;
70049;SDS011;57391;51.306;22.680;2022-09-03T16:41:47;11.60;;;5.50;;
70049;SDS011;57391;51.306;22.680;2022-09-03T16:44:42;13.10;;;5.50;;
70049;SDS011;57391;51.306;22.680;2022-09-03T16:48:14;12.40;;;6.60;;
70049;SDS011;57391;51.306;22.680;2022-09-03T16:51:21;30.00;;;18.70;;
70049;SDS011;57391;51.306;22.680;2022-09-03T16:54:22;25.90;;;18.10;;
70049;SDS011;57391;51.306;22.680;2022-09-03T16:57:37;37.10;;;26.70;;
70049;SDS011;57391;51.306;22.680;2022-09-03T17:00:13;18.70;;;12.30;;
70049;SDS011;57391;51.306;22.680;2022-09-03T17:12:02;11.90;;;6.40;;
70049;SDS011;57391;51.306;22.680;2022-09-03T17:18:01;11.30;;;6.10;;
70049;SDS011;57391;51.306;22.680;2022-09-03T17:26:46;44.40;;;24.80;;
70049;SDS011;57391;51.306;22.680;2022-09-03T17:33:05;58.60;;;36.70;;
70049;SDS011;57391;51.306;22.680;2022-09-03T17:36:17;17.40;;;9.10;;
70049;SDS011;57391;51.306;22.680;2022-09-03T17:39:06;24.10;;;12.30;;
70049;SDS011;57391;51.306;22.680;2022-09-03T17:44:44;23.50;;;11.10;;
70049;SDS011;57391;51.306;22.680;2022-09-03T17:50:16;25.50;;;13.50;;
70049;SDS011;57391;51.306;22.680;2022-09-03T17:58:49;19.30;;;9.60;;
70049;SDS011;57391;51.306;22.680;2022-09-03T18:01:34;17.00;;;8.80;;
70049;SDS011;57391;51.306;22.680;2022-09-03T18:07:37;18.20;;;12.20;;
70049;SDS011;57391;51.306;22.680;2022-09-03T18:16:26;12.40;;;6.30;;
70049;SDS011;57391;51.306;22.680;2022-09-03T18:22:31;11.60;;;5.90;;
70049;SDS011;57391;51.306;22.680;2022-09-03T18:25:34;11.40;;;5.60;;
70049;SDS011;57391;51.306;22.680;2022-09-03T18:28:35;10.60;;;5.70;;
70049;SDS011;57391;51.306;22.680;2022-09-03T18:31:26;8.40;;;4.90;;
70049;SDS011;57391;51.306;22.680;2022-09-03T18:34:12;8.40;;;5.00;;
70049;SDS011;57391;51.306;22.680;2022-09-03T18:36:58;10.10;;;5.50;;
70049;SDS011;57391;51.306;22.680;2022-09-03T18:39:44;12.30;;;5.80;;
70049;SDS011;57391;51.306;22.680;2022-09-03T18:42:49;8.90;;;4.90;;
70049;SDS011;57391;51.306;22.680;2022-09-03T18:46:14;11.70;;;6.00;;
70049;SDS011;57391;51.306;22.680;2022-09-03T18:52:17;10.20;;;5.70;;
70049;SDS011;57391;51.306;22.680;2022-09-03T18:55:22;10.60;;;6.00;;
70049;SDS011;57391;51.306;22.680;2022-09-03T19:01:34;11.60;;;6.30;;
70049;SDS011;57391;51.306;22.680;2022-09-03T19:04:36;12.00;;;6.50;;
70049;SDS011;57391;51.306;22.680;2022-09-03T19:07:46;12.40;;;6.80;;
70049;SDS011;57391;51.306;22.680;2022-09-03T19:10:51;12.80;;;6.50;;
70049;SDS011;57391;51.306;22.680;2022-09-03T19:13:41;13.80;;;7.00;;
70049;SDS011;57391;51.306;22.680;2022-09-03T19:23:13;11.20;;;6.10;;
70049;SDS011;57391;51.306;22.680;2022-09-03T19:26:17;10.60;;;6.50;;
70049;SDS011;57391;51.306;22.680;2022-09-03T19:29:26;12.40;;;7.30;;
70049;SDS011;57391;51.306;22.680;2022-09-03T19:33:03;13.80;;;7.70;;
70049;SDS011;57391;51.306;22.680;2022-09-03T19:36:14;14.60;;;7.70;;
70049;SDS011;57391;51.306;22.680;2022-09-03T19:49:08;13.90;;;7.10;;
70049;SDS011;57391;51.306;22.680;2022-09-03T19:52:20;15.20;;;7.40;;
70049;SDS011;57391;51.306;22.680;2022-09-03T19:55:13;16.40;;;7.80;;
70049;SDS011;57391;51.306;22.680;2022-09-03T19:58:06;18.90;;;10.00;;
70049;SDS011;57391;51.306;22.680;2022-09-03T20:00:53;15.80;;;8.50;;
70049;SDS011;57391;51.306;22.680;2022-09-03T20:03:41;14.30;;;7.90;;
70049;SDS011;57391;51.306;22.680;2022-09-03T20:06:28;12.80;;;7.70;;
70049;SDS011;57391;51.306;22.680;2022-09-03T20:09:28;12.90;;;7.10;;
70049;SDS011;57391;51.306;22.680;2022-09-03T20:12:23;13.40;;;7.30;;
70049;SDS011;57391;51.306;22.680;2022-09-03T20:14:56;12.80;;;7.00;;
70049;SDS011;57391;51.306;22.680;2022-09-03T20:20:40;12.10;;;7.10;;
70049;SDS011;57391;51.306;22.680;2022-09-03T20:23:46;11.90;;;6.80;;
70049;SDS011;57391;51.306;22.680;2022-09-03T20:30:05;12.10;;;6.90;;
70049;SDS011;57391;51.306;22.680;2022-09-03T20:35:51;18.20;;;8.40;;
70049;SDS011;57391;51.306;22.680;2022-09-03T20:45:13;17.90;;;8.10;;
70049;SDS011;57391;51.306;22.680;2022-09-03T20:51:13;22.00;;;10.10;;
70049;SDS011;57391;51.306;22.680;2022-09-03T20:56:38;29.50;;;13.60;;
70049;SDS011;57391;51.306;22.680;2022-09-03T21:05:13;32.70;;;15.60;;
70049;SDS011;57391;51.306;22.680;2022-09-03T21:07:59;25.60;;;14.30;;
70049;SDS011;57391;51.306;22.680;2022-09-03T21:10:57;24.80;;;12.60;;
70049;SDS011;57391;51.306;22.680;2022-09-03T21:25:13;13.60;;;8.00;;
70049;SDS011;57391;51.306;22.680;2022-09-03T21:28:02;13.30;;;7.50;;
70049;SDS011;57391;51.306;22.680;2022-09-03T21:30:37;13.90;;;7.90;;
70049;SDS011;57391;51.306;22.680;2022-09-03T21:33:19;15.50;;;8.30;;
70049;SDS011;57391;51.306;22.680;2022-09-03T21:38:34;13.40;;;7.60;;
70049;SDS011;57391;51.306;22.680;2022-09-03T21:41:32;13.80;;;7.90;;